Time;durP1;ratioP1;P1;durP2;ratioP2;P2;SDS_P1;SDS_P2;PMS_P1;PMS_P2;Temp;Humidity;BMP_temperature;BMP_pressure;BME280_temperature;BME280_humidity;BME280_pressure;Samples;Min_cycle;Max_cycle;Signal;HPM_P1;HPM_P2
2024/01/18 00:02:34;;;;;;;22.20;14.97;;;2.40;87.30;;;;;;10356201;28;20256;-64
2024/01/18 00:07:41;;;;;;;21.83;15.83;;;2.40;87.90;;;;;;10361823;28;20228;-64
2024/01/18 00:12:45;;;;;;;22.37;16.73;;;2.40;87.20;;;;;;10361506;28;20255;-64
2024/01/18 00:17:50;;;;;;;19.97;15.17;;;2.50;87.50;;;;;;10360220;28;20205;-64
2024/01/18 00:22:54;;;;;;;22.77;15.43;;;2.50;87.40;;;;;;10351117;28;20220;-64
2024/01/18 00:27:57;;;;;;;20.90;15.80;;;2.50;86.80;;;;;;10361065;28;20274;-64
2024/01/18 00:33:02;;;;;;;20.47;15.67;;;2.50;86.80;;;;;;10366125;28;20285;-64
2024/01/18 00:38:06;;;;;;;22.67;16.60;;;2.50;86.80;;;;;;10370642;28;20229;-64
2024/01/18 00:43:11;;;;;;;23.90;16.43;;;2.50;86.80;;;;;;10372848;28;20273;-64
2024/01/18 00:48:15;;;;;;;23.43;16.47;;;2.40;86.50;;;;;;10371060;28;20224;-64
2024/01/18 00:53:19;;;;;;;23.67;16.47;;;2.40;86.80;;;;;;10370691;28;20259;-64
2024/01/18 00:58:26;;;;;;;25.20;17.17;;;2.40;86.60;;;;;;10369745;28;20545;-64
2024/01/18 01:03:30;;;;;;;22.83;16.90;;;2.40;87.80;;;;;;10363747;28;20247;-63
2024/01/18 01:08:35;;;;;;;23.23;16.90;;;2.40;86.90;;;;;;10367105;28;20727;-64
2024/01/18 01:13:38;;;;;;;23.87;16.70;;;2.40;86.80;;;;;;10366373;28;20775;-64
2024/01/18 01:18:43;;;;;;;23.27;16.77;;;2.40;87.00;;;;;;10367133;28;20292;-64
2024/01/18 01:23:48;;;;;;;23.37;17.17;;;2.40;86.90;;;;;;10366875;28;20296;-64
2024/01/18 01:28:52;;;;;;;24.83;17.80;;;2.40;86.80;;;;;;10366889;28;20246;-65
2024/01/18 01:33:57;;;;;;;24.87;16.90;;;2.40;87.10;;;;;;10367422;28;20631;-65
2024/01/18 01:39:03;;;;;;;21.33;17.27;;;2.40;87.20;;;;;;10364415;28;20206;-65
2024/01/18 01:44:07;;;;;;;23.93;17.70;;;2.40;87.10;;;;;;10364133;28;20212;-65
2024/01/18 01:49:12;;;;;;;24.07;16.90;;;2.40;87.30;;;;;;10361125;28;20309;-65
2024/01/18 01:54:17;;;;;;;24.00;17.20;;;2.40;87.20;;;;;;10366700;28;20287;-65
2024/01/18 01:59:22;;;;;;;24.33;17.00;;;2.40;87.10;;;;;;10365277;28;20311;-65
2024/01/18 02:04:28;;;;;;;23.63;18.17;;;2.40;88.20;;;;;;10362774;28;20741;-65
2024/01/18 02:09:32;;;;;;;23.10;17.53;;;2.40;87.50;;;;;;10366028;28;20260;-65
2024/01/18 02:14:35;;;;;;;23.87;17.70;;;2.30;87.30;;;;;;10362858;28;20259;-65
2024/01/18 02:19:40;;;;;;;27.37;18.27;;;2.30;87.40;;;;;;10357514;28;20369;-65
2024/01/18 02:24:55;;;;;;;25.07;17.97;;;2.30;87.60;;;;;;10365401;28;20197;-65
2024/01/18 02:30:00;;;;;;;25.93;18.07;;;2.30;87.70;;;;;;10365541;28;20351;-65
2024/01/18 02:35:04;;;;;;;24.43;17.47;;;2.30;87.60;;;;;;10365468;28;20267;-65
2024/01/18 02:40:09;;;;;;;25.03;17.90;;;2.30;88.00;;;;;;10363113;28;20258;-63
2024/01/18 02:45:14;;;;;;;24.20;17.80;;;2.30;87.80;;;;;;10362756;28;20289;-65
2024/01/18 02:50:18;;;;;;;26.60;19.47;;;2.30;88.10;;;;;;10361737;28;20297;-64
2024/01/18 02:55:21;;;;;;;25.63;18.37;;;2.30;87.90;;;;;;10360768;28;20632;-63
2024/01/18 03:00:26;;;;;;;21.70;17.40;;;2.30;87.80;;;;;;10365851;28;20329;-65
2024/01/18 03:05:30;;;;;;;22.43;18.30;;;2.40;87.80;;;;;;10360721;28;20216;-63
2024/01/18 03:10:33;;;;;;;25.07;18.57;;;2.40;87.80;;;;;;10364252;28;20230;-64
2024/01/18 03:15:38;;;;;;;21.93;17.83;;;2.40;87.80;;;;;;10364644;28;20256;-64
2024/01/18 03:20:42;;;;;;;24.30;17.60;;;2.40;87.70;;;;;;10359830;28;20273;-64
2024/01/18 03:25:45;;;;;;;24.70;18.47;;;2.40;87.70;;;;;;10365345;28;20201;-64
2024/01/18 03:30:50;;;;;;;27.33;19.10;;;2.40;87.50;;;;;;10365953;28;20665;-64
2024/01/18 03:35:54;;;;;;;25.83;19.27;;;2.40;87.50;;;;;;10360029;28;20220;-64
2024/01/18 03:40:57;;;;;;;24.47;18.40;;;2.40;87.30;;;;;;10361553;28;20321;-65
2024/01/18 03:46:02;;;;;;;26.10;18.77;;;2.40;87.50;;;;;;10359613;28;20683;-65
2024/01/18 03:51:07;;;;;;;26.97;19.03;;;2.40;87.60;;;;;;10362000;28;20638;-64
2024/01/18 03:56:11;;;;;;;23.97;18.33;;;2.40;87.50;;;;;;10359414;28;20312;-64
2024/01/18 04:01:16;;;;;;;25.07;19.20;;;2.40;87.70;;;;;;10362197;28;20248;-65
2024/01/18 04:06:20;;;;;;;26.83;20.17;;;2.40;87.70;;;;;;10362767;28;20597;-64
2024/01/18 04:11:24;;;;;;;26.07;19.50;;;2.40;87.80;;;;;;10354399;28;20221;-64
2024/01/18 04:16:29;;;;;;;27.10;18.47;;;2.40;87.80;;;;;;10361718;28;20804;-64
2024/01/18 04:21:33;;;;;;;28.17;19.17;;;2.40;87.80;;;;;;10361402;28;20282;-64
2024/01/18 04:26:37;;;;;;;25.33;20.20;;;2.40;87.70;;;;;;10355088;28;20200;-64
2024/01/18 04:31:42;;;;;;;24.43;19.40;;;2.40;87.80;;;;;;10358450;28;20293;-64
2024/01/18 04:36:46;;;;;;;26.93;18.93;;;2.40;87.40;;;;;;10360736;28;20247;-65
2024/01/18 04:41:50;;;;;;;27.50;19.93;;;2.40;87.70;;;;;;10363295;28;20237;-64
2024/01/18 04:46:55;;;;;;;28.73;19.13;;;2.40;87.70;;;;;;10358174;28;20237;-65
2024/01/18 04:51:59;;;;;;;25.30;19.03;;;2.30;87.60;;;;;;10359834;28;20264;-64
2024/01/18 04:57:03;;;;;;;24.97;18.73;;;2.30;88.20;;;;;;10364751;28;20290;-64
2024/01/18 05:02:08;;;;;;;28.37;19.07;;;2.30;87.60;;;;;;10366638;28;20232;-65
2024/01/18 05:07:12;;;;;;;27.13;18.87;;;2.30;87.60;;;;;;10357830;28;20196;-65
2024/01/18 05:12:15;;;;;;;23.40;17.67;;;2.30;87.60;;;;;;10363401;28;20225;-65
2024/01/18 05:17:21;;;;;;;25.20;18.77;;;2.30;87.80;;;;;;10365687;28;20244;-65
2024/01/18 05:22:25;;;;;;;25.40;18.63;;;2.30;87.90;;;;;;10367471;28;20317;-65
2024/01/18 05:27:29;;;;;;;27.00;18.07;;;2.20;87.80;;;;;;10367039;28;20628;-64
2024/01/18 05:32:35;;;;;;;25.80;19.60;;;2.20;87.90;;;;;;10369231;28;20224;-65
2024/01/18 05:37:38;;;;;;;25.43;19.73;;;2.20;88.20;;;;;;10367009;28;20256;-64
2024/01/18 05:42:42;;;;;;;25.07;20.83;;;2.20;88.10;;;;;;10364928;28;20260;-65
2024/01/18 05:47:47;;;;;;;26.80;19.73;;;2.20;88.20;;;;;;10368632;28;20663;-65
2024/01/18 05:52:50;;;;;;;24.87;19.80;;;2.20;88.30;;;;;;10365865;28;20227;-66
2024/01/18 05:57:54;;;;;;;30.70;20.27;;;2.20;88.30;;;;;;10362781;28;20346;-63
2024/01/18 06:02:59;;;;;;;26.83;19.60;;;2.10;88.20;;;;;;10364125;28;20224;-65
2024/01/18 06:08:03;;;;;;;24.93;19.30;;;2.10;88.50;;;;;;10360006;28;20281;-63
2024/01/18 06:13:06;;;;;;;27.53;20.07;;;2.10;88.50;;;;;;10365363;28;20322;-64
2024/01/18 06:18:11;;;;;;;25.40;20.30;;;2.10;88.50;;;;;;10364848;28;20311;-64
2024/01/18 06:23:15;;;;;;;27.33;20.00;;;2.10;88.70;;;;;;10366152;28;20258;-64
2024/01/18 06:28:19;;;;;;;28.47;21.40;;;2.00;89.50;;;;;;10366993;28;20225;-64
2024/01/18 06:33:24;;;;;;;29.93;20.27;;;2.10;89.10;;;;;;10365857;28;20236;-64
2024/01/18 06:38:27;;;;;;;27.23;20.67;;;2.00;88.80;;;;;;10367998;28;20250;-65
2024/01/18 06:43:31;;;;;;;27.63;19.90;;;2.00;88.90;;;;;;10361849;28;20310;-62
2024/01/18 06:48:36;;;;;;;27.03;20.53;;;2.00;88.80;;;;;;10370114;28;20212;-62
2024/01/18 06:53:40;;;;;;;25.17;19.27;;;1.90;88.80;;;;;;10364696;28;20586;-63
2024/01/18 06:58:44;;;;;;;28.17;21.80;;;1.90;88.70;;;;;;10355448;28;20283;-65
2024/01/18 07:03:49;;;;;;;27.10;19.53;;;1.80;88.40;;;;;;10360074;28;20293;-63
2024/01/18 07:08:53;;;;;;;28.70;20.50;;;1.70;88.40;;;;;;10358210;28;20261;-64
2024/01/18 07:13:57;;;;;;;28.23;20.83;;;1.70;88.60;;;;;;10365190;28;20226;-63
2024/01/18 07:19:02;;;;;;;32.93;23.10;;;1.70;88.80;;;;;;10364690;28;20684;-63
2024/01/18 07:24:07;;;;;;;28.20;21.03;;;1.70;88.70;;;;;;10366081;28;20197;-63
2024/01/18 07:29:10;;;;;;;26.03;20.43;;;1.60;88.40;;;;;;10371246;28;20219;-63
2024/01/18 07:34:16;;;;;;;30.73;23.37;;;1.60;88.60;;;;;;10363634;28;22097;-68
2024/01/18 07:39:21;;;;;;;43.07;28.17;;;1.50;88.70;;;;;;10362208;28;20221;-63
2024/01/18 07:44:25;;;;;;;43.97;26.97;;;1.50;88.60;;;;;;10363551;28;20330;-63
2024/01/18 07:49:30;;;;;;;34.93;22.57;;;1.50;88.70;;;;;;10364331;28;20216;-64
2024/01/18 07:54:33;;;;;;;33.83;22.33;;;1.50;88.80;;;;;;10366245;28;20196;-63
2024/01/18 07:59:37;;;;;;;29.90;21.77;;;1.40;88.60;;;;;;10363759;28;20257;-62
2024/01/18 08:04:42;;;;;;;27.87;21.27;;;1.40;88.60;;;;;;10362416;28;20208;-63
2024/01/18 08:09:45;;;;;;;29.30;22.07;;;1.40;88.50;;;;;;10365698;28;20310;-63
2024/01/18 08:14:49;;;;;;;33.63;29.20;;;1.30;88.40;;;;;;10364249;28;20443;-66
2024/01/18 08:19:54;;;;;;;28.83;22.50;;;1.40;88.70;;;;;;10363507;28;20289;-66
2024/01/18 08:24:58;;;;;;;28.13;21.33;;;1.40;88.50;;;;;;10363281;28;20261;-65
2024/01/18 08:30:03;;;;;;;29.10;21.50;;;1.40;88.10;;;;;;10361458;28;20228;-67
2024/01/18 08:35:09;;;;;;;28.10;21.60;;;1.40;88.00;;;;;;10361763;28;20257;-70
2024/01/18 08:40:13;;;;;;;29.10;22.37;;;1.30;87.90;;;;;;10365474;28;20223;-66
2024/01/18 08:45:20;;;;;;;35.13;23.67;;;1.30;88.20;;;;;;10366713;28;20200;-67
2024/01/18 08:50:25;;;;;;;32.13;23.07;;;1.30;88.20;;;;;;10363391;28;20782;-66
2024/01/18 08:55:28;;;;;;;33.77;25.17;;;1.30;88.30;;;;;;10372126;28;20204;-67
2024/01/18 09:00:32;;;;;;;32.97;23.83;;;1.40;88.40;;;;;;10371628;28;20718;-69
2024/01/18 09:05:37;;;;;;;34.17;25.10;;;1.40;88.60;;;;;;10369517;28;20232;-68
2024/01/18 09:10:41;;;;;;;32.37;24.63;;;1.40;89.20;;;;;;10367846;28;20227;-68
2024/01/18 09:15:44;;;;;;;36.80;27.73;;;1.40;88.80;;;;;;10370390;28;20454;-67
2024/01/18 09:20:49;;;;;;;36.17;27.37;;;1.50;88.80;;;;;;10372632;28;20634;-68
2024/01/18 09:25:53;;;;;;;33.63;25.57;;;1.50;88.70;;;;;;10370847;28;20266;-67
2024/01/18 09:30:57;;;;;;;34.73;25.90;;;1.70;89.40;;;;;;10374045;28;20271;-67
2024/01/18 09:36:02;;;;;;;35.50;25.23;;;1.70;89.20;;;;;;10370243;28;20197;-67
2024/01/18 09:41:08;;;;;;;32.90;25.33;;;1.70;89.60;;;;;;10369648;28;20290;-66
2024/01/18 09:46:13;;;;;;;31.03;24.90;;;1.70;90.60;;;;;;10367289;28;20213;-67
2024/01/18 09:51:21;;;;;;;28.87;22.67;;;2.00;90.70;;;;;;10370963;28;20279;-67
2024/01/18 09:56:26;;;;;;;32.43;23.33;;;2.20;90.30;;;;;;10371765;28;20201;-67
2024/01/18 10:01:32;;;;;;;31.83;22.60;;;2.30;89.90;;;;;;10365823;28;20278;-67
2024/01/18 10:06:38;;;;;;;31.87;22.67;;;2.30;89.70;;;;;;10370220;28;20765;-67
2024/01/18 10:11:44;;;;;;;29.53;21.87;;;2.40;89.70;;;;;;10367988;28;20302;-67
2024/01/18 10:16:47;;;;;;;26.23;20.70;;;2.40;89.40;;;;;;10368461;28;20278;-66
2024/01/18 10:21:52;;;;;;;25.60;20.03;;;2.40;89.20;;;;;;10373916;28;20224;-65
2024/01/18 10:27:07;;;;;;;25.53;20.80;;;2.40;89.50;;;;;;10376874;28;20224;-65
2024/01/18 10:32:11;;;;;;;26.63;18.40;;;2.50;89.50;;;;;;10369876;28;20227;-63
2024/01/18 10:37:16;;;;;;;21.53;15.77;;;2.50;89.20;;;;;;10370354;28;20262;-67
2024/01/18 10:42:20;;;;;;;21.53;15.50;;;2.60;89.10;;;;;;10370045;28;20286;-66
2024/01/18 10:47:24;;;;;;;18.77;14.07;;;2.60;89.10;;;;;;10369827;28;20204;-67
2024/01/18 10:52:30;;;;;;;19.87;14.57;;;2.70;89.00;;;;;;10369844;28;20275;-67
2024/01/18 10:57:34;;;;;;;19.90;15.60;;;2.80;89.60;;;;;;10367089;28;20205;-66
2024/01/18 11:02:39;;;;;;;14.93;10.70;;;2.90;89.20;;;;;;10366619;28;20230;-66
2024/01/18 11:07:46;;;;;;;11.83;7.33;;;3.00;89.10;;;;;;10367568;28;20260;-66
2024/01/18 11:12:50;;;;;;;16.30;10.30;;;3.00;89.50;;;;;;10367207;28;20284;-66
2024/01/18 11:17:55;;;;;;;8.83;6.40;;;3.10;89.20;;;;;;10366412;28;20750;-66
2024/01/18 11:23:01;;;;;;;10.77;7.00;;;3.20;88.70;;;;;;10363187;28;20783;-67
2024/01/18 11:28:05;;;;;;;8.20;6.33;;;3.30;89.00;;;;;;10367923;28;20198;-67
2024/01/18 11:33:08;;;;;;;10.30;7.13;;;3.30;88.50;;;;;;10369879;28;20224;-67
2024/01/18 11:38:21;;;;;;;8.50;5.83;;;3.40;88.40;;;;;;10366887;28;20273;-67
2024/01/18 11:43:25;;;;;;;11.67;6.53;;;3.40;87.80;;;;;;10366883;28;20232;-68
2024/01/18 11:48:30;;;;;;;9.37;6.20;;;3.50;88.10;;;;;;10367962;28;20203;-68
2024/01/18 11:53:36;;;;;;;10.73;6.10;;;3.50;87.80;;;;;;10368127;28;20296;-67
2024/01/18 11:58:40;;;;;;;10.57;6.17;;;3.60;87.70;;;;;;10367077;28;20780;-66
2024/01/18 12:03:44;;;;;;;9.70;5.33;;;3.70;88.00;;;;;;10366123;28;20893;-67
2024/01/18 12:08:49;;;;;;;7.97;4.30;;;3.70;87.40;;;;;;10366376;28;20223;-66
2024/01/18 12:13:53;;;;;;;10.03;4.80;;;3.80;87.00;;;;;;10365727;28;20841;-66
2024/01/18 12:18:56;;;;;;;6.10;3.40;;;3.80;87.40;;;;;;10366219;28;20235;-66
2024/01/18 12:24:02;;;;;;;8.33;4.43;;;3.90;88.40;;;;;;10361908;28;20705;-66
2024/01/18 12:29:06;;;;;;;8.80;4.00;;;4.00;88.30;;;;;;10379386;28;20201;-66
2024/01/18 12:34:10;;;;;;;5.57;3.83;;;4.20;88.70;;;;;;10380126;28;20205;-65
2024/01/18 12:39:17;;;;;;;6.53;3.53;;;4.50;88.20;;;;;;10376356;28;20222;-67
2024/01/18 12:44:22;;;;;;;5.27;3.00;;;4.70;87.90;;;;;;10379854;28;20202;-67
2024/01/18 12:49:26;;;;;;;4.10;2.40;;;4.80;87.80;;;;;;10379266;28;20280;-66
2024/01/18 12:54:31;;;;;;;2.80;1.90;;;5.00;87.00;;;;;;10376848;28;20188;-67
2024/01/18 12:59:36;;;;;;;5.67;2.30;;;5.30;86.80;;;;;;10375254;28;20238;-66
2024/01/18 13:04:40;;;;;;;4.83;2.30;;;5.30;86.70;;;;;;10377630;28;20209;-66
2024/01/18 13:09:45;;;;;;;5.90;2.03;;;5.30;87.10;;;;;;10378123;28;20285;-66
2024/01/18 13:14:49;;;;;;;2.10;1.60;;;5.40;85.70;;;;;;10378078;28;20193;-67
2024/01/18 13:19:53;;;;;;;3.73;1.80;;;5.30;85.60;;;;;;10379090;28;20240;-67
2024/01/18 13:24:58;;;;;;;4.27;2.07;;;5.40;85.40;;;;;;10379987;28;20208;-67
2024/01/18 13:30:03;;;;;;;4.93;1.90;;;5.30;86.70;;;;;;10372632;28;20654;-66
2024/01/18 13:35:07;;;;;;;4.43;2.33;;;5.20;85.60;;;;;;10379122;28;20238;-67
2024/01/18 13:40:12;;;;;;;5.47;2.50;;;5.00;85.70;;;;;;10372748;28;20575;-67
2024/01/18 13:45:16;;;;;;;7.87;2.50;;;4.90;85.40;;;;;;10369539;28;20201;-68
2024/01/18 13:50:21;;;;;;;4.67;2.07;;;4.90;84.50;;;;;;10369848;28;20223;-68
2024/01/18 13:55:27;;;;;;;4.70;1.90;;;4.90;85.40;;;;;;10371904;28;20719;-67
2024/01/18 14:00:30;;;;;;;6.50;1.60;;;4.80;86.90;;;;;;10375900;28;20222;-66
2024/01/18 14:05:34;;;;;;;5.50;1.90;;;4.80;87.60;;;;;;10368867;28;20207;-67
2024/01/18 14:10:39;;;;;;;4.50;1.73;;;4.80;86.90;;;;;;10368542;28;20197;-68
2024/01/18 14:15:43;;;;;;;5.80;1.97;;;4.90;86.10;;;;;;10363523;28;20261;-67
2024/01/18 14:20:47;;;;;;;2.90;1.57;;;5.00;87.80;;;;;;10369992;28;20231;-67
2024/01/18 14:25:51;;;;;;;5.57;1.70;;;5.20;88.00;;;;;;10371477;28;20243;-67
2024/01/18 14:30:55;;;;;;;5.03;1.87;;;5.30;87.80;;;;;;10369688;28;20637;-66
2024/01/18 14:35:59;;;;;;;3.93;1.40;;;5.40;86.70;;;;;;10369853;28;20211;-66
2024/01/18 14:41:04;;;;;;;2.80;1.33;;;5.40;86.10;;;;;;10369113;28;20227;-67
2024/01/18 14:46:08;;;;;;;3.10;1.40;;;5.40;85.70;;;;;;10368457;28;20550;-66
2024/01/18 14:51:11;;;;;;;2.57;1.50;;;5.30;86.30;;;;;;10367858;28;20269;-67
2024/01/18 14:56:17;;;;;;;6.73;1.30;;;5.30;86.00;;;;;;10365854;28;20774;-66
2024/01/18 15:01:20;;;;;;;4.63;1.57;;;5.20;85.60;;;;;;10368527;28;20223;-66
2024/01/18 15:06:24;;;;;;;2.93;1.70;;;5.20;85.40;;;;;;10366815;28;20201;-66
2024/01/18 15:11:29;;;;;;;5.47;2.00;;;5.10;86.30;;;;;;10365135;28;20220;-65
2024/01/18 15:16:32;;;;;;;3.07;1.77;;;5.10;85.10;;;;;;10366020;28;20609;-66
2024/01/18 15:21:36;;;;;;;7.50;2.00;;;5.10;85.10;;;;;;10362041;28;20259;-66
2024/01/18 15:26:41;;;;;;;8.43;4.30;;;5.10;85.60;;;;;;10363690;28;20211;-67
2024/01/18 15:31:45;;;;;;;10.00;5.53;;;5.00;86.50;;;;;;10360273;28;20853;-67
2024/01/18 15:36:49;;;;;;;7.87;3.13;;;5.10;83.90;;;;;;10362532;28;20266;-66
2024/01/18 15:41:55;;;;;;;4.33;2.00;;;5.10;84.60;;;;;;10364146;28;20679;-67
2024/01/18 15:47:03;;;;;;;7.00;2.43;;;5.00;85.70;;;;;;10367152;28;20203;-67
2024/01/18 15:52:07;;;;;;;5.40;2.97;;;4.90;86.90;;;;;;10361675;28;20215;-67
2024/01/18 15:57:13;;;;;;;8.20;2.87;;;4.90;86.50;;;;;;10364765;28;20209;-67
2024/01/18 16:02:17;;;;;;;4.93;2.97;;;4.80;85.70;;;;;;10363238;28;20257;-67
2024/01/18 16:07:20;;;;;;;10.13;3.20;;;4.80;86.20;;;;;;10365280;28;20655;-67
2024/01/18 16:12:26;;;;;;;7.07;4.00;;;4.70;86.30;;;;;;10367173;28;20276;-67
2024/01/18 16:17:29;;;;;;;4.93;3.20;;;4.70;87.00;;;;;;10364409;28;20244;-68
2024/01/18 17:16:43;;;;;;;6.63;2.80;;;3.80;87.30;;;;;;10609366;27;20442;-66
2024/01/18 17:21:47;;;;;;;4.60;2.70;;;4.00;87.60;;;;;;10585141;27;20505;-66
2024/01/18 17:26:53;;;;;;;8.83;3.10;;;4.20;88.10;;;;;;10568646;28;20207;-67
2024/01/18 17:31:58;;;;;;;5.27;3.37;;;4.20;89.40;;;;;;10567117;28;20227;-70
2024/01/18 17:37:01;;;;;;;5.33;3.50;;;4.30;88.10;;;;;;10562777;28;20270;-66
2024/01/18 17:42:05;;;;;;;8.90;3.50;;;4.30;89.10;;;;;;10565056;28;20596;-68
2024/01/18 17:47:10;;;;;;;8.53;3.73;;;4.20;88.30;;;;;;10576753;28;20238;-68
2024/01/18 17:52:14;;;;;;;6.43;3.53;;;4.20;88.70;;;;;;10567506;27;20743;-69
2024/01/18 17:57:18;;;;;;;6.37;3.43;;;4.20;88.70;;;;;;10565431;28;20211;-67
2024/01/18 18:02:23;;;;;;;8.37;5.27;;;4.20;88.70;;;;;;10572832;27;20681;-67
2024/01/18 18:07:27;;;;;;;8.93;4.47;;;4.10;88.80;;;;;;10566495;28;20200;-67
2024/01/18 18:12:30;;;;;;;6.60;4.30;;;4.10;89.30;;;;;;10574040;27;20259;-67
2024/01/18 18:17:35;;;;;;;7.30;4.07;;;4.20;89.80;;;;;;10564948;28;20199;-65
2024/01/18 18:22:39;;;;;;;7.67;4.40;;;4.20;89.50;;;;;;10564359;28;20212;-68
2024/01/18 18:27:43;;;;;;;7.23;3.90;;;4.20;89.20;;;;;;10539162;27;20199;-69
2024/01/18 18:32:48;;;;;;;8.70;4.87;;;4.20;90.20;;;;;;10532597;28;20225;-68
2024/01/18 18:37:52;;;;;;;9.03;5.27;;;4.20;89.30;;;;;;10532212;28;20200;-68
2024/01/18 18:42:56;;;;;;;7.23;5.33;;;4.10;89.40;;;;;;10535086;28;20269;-69
2024/01/18 18:48:01;;;;;;;9.07;5.67;;;4.10;89.90;;;;;;10534131;28;20210;-71
2024/01/18 18:53:05;;;;;;;5.37;4.27;;;4.10;89.30;;;;;;10533956;28;20311;-67
2024/01/18 18:58:08;;;;;;;5.70;3.80;;;4.00;89.30;;;;;;10540804;28;20206;-66
2024/01/18 19:03:13;;;;;;;10.90;5.67;;;4.00;89.20;;;;;;10530955;28;20227;-66
2024/01/18 19:08:17;;;;;;;8.70;5.20;;;3.90;89.40;;;;;;10533376;28;20208;-65
2024/01/18 19:13:22;;;;;;;9.13;4.57;;;3.90;89.40;;;;;;10533407;28;20279;-65
2024/01/18 19:18:32;;;;;;;7.13;4.00;;;3.80;89.20;;;;;;10531438;28;20245;-67
2024/01/18 19:23:36;;;;;;;8.27;4.87;;;3.70;89.20;;;;;;10533246;28;20215;-70
2024/01/18 19:28:39;;;;;;;6.30;4.30;;;3.70;89.30;;;;;;10532647;28;20259;-66
2024/01/18 19:33:44;;;;;;;7.40;4.60;;;3.60;89.20;;;;;;10530672;28;20270;-67
2024/01/18 19:38:48;;;;;;;8.23;5.03;;;3.60;89.30;;;;;;10535680;28;20195;-66
2024/01/18 19:43:52;;;;;;;7.13;4.80;;;3.50;89.30;;;;;;10532783;28;20215;-65
2024/01/18 19:48:56;;;;;;;9.70;5.83;;;3.40;89.20;;;;;;10533209;28;20259;-67
2024/01/18 19:54:02;;;;;;;9.03;5.87;;;3.30;90.10;;;;;;10529925;28;20307;-69
2024/01/18 19:59:06;;;;;;;9.27;6.53;;;3.20;89.60;;;;;;10531235;28;20623;-67
2024/01/18 20:04:11;;;;;;;9.50;6.10;;;3.20;89.60;;;;;;10531027;28;20200;-66
2024/01/18 20:09:14;;;;;;;6.70;5.30;;;3.10;89.40;;;;;;10530981;28;20229;-67
2024/01/18 20:14:18;;;;;;;7.77;5.70;;;3.00;88.90;;;;;;10531314;28;20227;-65
2024/01/18 20:19:23;;;;;;;9.80;5.80;;;2.90;89.10;;;;;;10531277;28;20694;-68
2024/01/18 20:24:33;;;;;;;11.90;8.93;;;2.80;89.10;;;;;;10534612;28;20195;-67
2024/01/18 20:29:37;;;;;;;13.37;8.97;;;2.80;89.60;;;;;;10530797;28;20310;-67
2024/01/18 20:34:43;;;;;;;14.37;9.43;;;2.70;89.90;;;;;;10534275;28;20218;-71
2024/01/18 20:39:47;;;;;;;12.27;8.93;;;2.70;89.80;;;;;;10534228;28;20280;-66
2024/01/18 20:44:51;;;;;;;11.33;8.63;;;2.70;89.60;;;;;;10533114;28;20627;-69
2024/01/18 20:49:56;;;;;;;11.67;8.33;;;2.60;89.60;;;;;;10531250;28;20289;-66
2024/01/18 20:55:00;;;;;;;11.20;8.60;;;2.60;89.80;;;;;;10529830;28;20823;-68
2024/01/18 21:00:06;;;;;;;14.27;9.07;;;2.60;89.90;;;;;;10527489;28;20221;-69
2024/01/18 21:05:19;;;;;;;10.73;7.43;;;2.50;89.90;;;;;;10528569;28;20302;-66
2024/01/18 21:10:23;;;;;;;12.33;8.07;;;2.50;90.00;;;;;;10530459;28;20213;-69
2024/01/18 21:15:26;;;;;;;9.17;7.43;;;2.50;90.00;;;;;;10531799;28;20580;-68
2024/01/18 21:20:31;;;;;;;12.63;9.57;;;2.50;90.00;;;;;;10530713;28;20225;-65
2024/01/18 21:25:35;;;;;;;16.83;10.97;;;2.40;90.00;;;;;;10531468;28;20197;-65
2024/01/18 21:30:39;;;;;;;18.70;12.40;;;2.40;90.00;;;;;;10530952;28;20217;-64
2024/01/18 21:35:44;;;;;;;20.40;13.03;;;2.40;90.00;;;;;;10527732;28;20217;-65
2024/01/18 21:40:48;;;;;;;17.80;12.53;;;2.40;90.00;;;;;;10532352;28;20282;-64
2024/01/18 21:45:53;;;;;;;21.00;13.13;;;2.30;90.00;;;;;;10531681;28;20250;-64
2024/01/18 21:50:58;;;;;;;17.93;11.77;;;2.30;90.00;;;;;;10528073;28;20225;-64
2024/01/18 21:56:03;;;;;;;16.23;11.20;;;2.20;90.00;;;;;;10525759;28;20230;-66
2024/01/18 22:01:07;;;;;;;19.07;11.53;;;2.20;90.10;;;;;;10532153;28;20734;-64
2024/01/18 22:06:14;;;;;;;17.33;11.57;;;2.20;90.20;;;;;;10534108;28;20202;-62
2024/01/18 22:11:18;;;;;;;18.67;11.63;;;2.20;90.20;;;;;;10542289;28;20227;-63
2024/01/18 22:16:21;;;;;;;16.83;10.97;;;2.20;90.30;;;;;;10534879;28;20223;-64
2024/01/18 22:21:26;;;;;;;17.40;11.97;;;2.20;90.30;;;;;;10538668;28;20280;-64
2024/01/18 22:26:30;;;;;;;18.70;12.87;;;2.20;90.10;;;;;;10535897;28;20226;-63
2024/01/18 22:31:34;;;;;;;15.40;10.67;;;2.10;90.00;;;;;;10543948;28;20294;-64
2024/01/18 22:36:39;;;;;;;13.37;9.53;;;2.10;90.10;;;;;;10533429;28;20769;-64
2024/01/18 22:41:42;;;;;;;14.60;10.03;;;2.10;90.20;;;;;;10537399;28;20222;-63
2024/01/18 22:46:46;;;;;;;12.57;8.70;;;2.00;90.20;;;;;;10536158;28;20603;-64
2024/01/18 22:51:51;;;;;;;13.17;9.23;;;2.00;90.20;;;;;;10537240;28;20723;-63
2024/01/18 22:56:55;;;;;;;12.30;8.53;;;2.00;90.00;;;;;;10537877;28;20214;-63
2024/01/18 23:01:59;;;;;;;10.10;8.33;;;1.90;90.00;;;;;;10543464;28;20225;-64
2024/01/18 23:07:04;;;;;;;14.30;9.20;;;1.90;90.00;;;;;;10537275;28;20191;-64
2024/01/18 23:12:08;;;;;;;13.40;9.00;;;1.80;90.00;;;;;;10537536;28;20235;-64
2024/01/18 23:17:11;;;;;;;13.60;9.10;;;1.80;90.00;;;;;;10536067;28;20279;-65
2024/01/18 23:22:16;;;;;;;13.77;9.57;;;1.80;90.10;;;;;;10540515;28;20229;-65
2024/01/18 23:27:20;;;;;;;12.67;8.93;;;1.80;90.50;;;;;;10533648;28;20790;-64
2024/01/18 23:32:23;;;;;;;14.33;10.03;;;1.80;90.20;;;;;;10536164;28;20226;-66
2024/01/18 23:37:28;;;;;;;12.77;9.43;;;1.70;90.00;;;;;;10535559;28;20712;-66
2024/01/18 23:42:32;;;;;;;16.47;10.63;;;1.70;90.00;;;;;;10533058;28;20218;-65
2024/01/18 23:47:35;;;;;;;13.13;9.77;;;1.70;90.20;;;;;;10535846;28;20197;-64
2024/01/18 23:52:40;;;;;;;15.07;10.93;;;1.70;90.10;;;;;;10536058;28;20279;-65
2024/01/18 23:57:44;;;;;;;15.07;10.07;;;1.60;90.10;;;;;;10542134;28;20221;-65
